Time;durP1;ratioP1;P1;durP2;ratioP2;P2;SDS_P1;SDS_P2;PMS_P1;PMS_P2;Temp;Humidity;BMP_temperature;BMP_pressure;BME280_temperature;BME280_humidity;BME280_pressure;Samples;Min_cycle;Max_cycle;Signal;HPM_P1;HPM_P2
2023/12/09 00:01:08;;;;;;;2.78;0.82;;;9.30;99.90;;;;;;5043964;28;20036;-49
2023/12/09 00:03:34;;;;;;;5.88;0.82;;;9.40;99.90;;;;;;5037396;28;20641;-55
2023/12/09 00:05:59;;;;;;;4.38;0.73;;;9.30;99.90;;;;;;5033123;28;20021;-56
2023/12/09 00:08:25;;;;;;;4.68;1.05;;;9.30;99.90;;;;;;5033019;28;20072;-49
2023/12/09 00:10:50;;;;;;;8.85;1.10;;;9.30;99.90;;;;;;5033571;28;20371;-52
2023/12/09 00:13:17;;;;;;;4.65;1.00;;;9.30;99.90;;;;;;5033561;28;20075;-54
2023/12/09 00:15:42;;;;;;;13.10;1.38;;;9.30;99.90;;;;;;5033665;28;20179;-56
2023/12/09 00:18:08;;;;;;;2.92;1.05;;;9.30;99.90;;;;;;5033540;28;20390;-50
2023/12/09 00:20:34;;;;;;;3.60;0.63;;;9.30;99.90;;;;;;5033352;28;20032;-53
2023/12/09 00:22:59;;;;;;;9.52;1.20;;;9.30;99.90;;;;;;5033034;28;20452;-49
2023/12/09 00:25:25;;;;;;;4.75;1.00;;;9.20;99.90;;;;;;5033433;28;20196;-54
2023/12/09 00:27:51;;;;;;;5.85;1.23;;;9.30;99.90;;;;;;5033429;28;20450;-50
2023/12/09 00:30:16;;;;;;;5.55;0.85;;;9.30;99.90;;;;;;5033284;28;20083;-55
2023/12/09 00:32:42;;;;;;;2.08;0.57;;;9.30;99.90;;;;;;5033237;28;20125;-53
2023/12/09 00:35:08;;;;;;;5.78;0.90;;;9.20;99.90;;;;;;5033190;28;20026;-51
2023/12/09 00:37:34;;;;;;;9.90;0.95;;;9.20;99.90;;;;;;5032850;28;20025;-50
2023/12/09 00:39:59;;;;;;;1.17;0.50;;;9.20;99.90;;;;;;5031787;28;20021;-51
2023/12/09 00:42:25;;;;;;;3.33;0.63;;;9.20;99.90;;;;;;5033048;28;20573;-51
2023/12/09 00:44:52;;;;;;;12.63;0.82;;;9.20;99.90;;;;;;5019132;28;20049;-54
2023/12/09 00:47:17;;;;;;;5.55;1.45;;;9.20;99.90;;;;;;5033088;28;20075;-52
2023/12/09 00:49:43;;;;;;;9.00;0.90;;;9.30;99.90;;;;;;5032899;28;20022;-50
2023/12/09 00:52:08;;;;;;;7.57;1.00;;;9.20;99.90;;;;;;5032908;28;20166;-52
2023/12/09 00:54:34;;;;;;;8.27;1.05;;;9.20;99.90;;;;;;5032377;28;20470;-51
2023/12/09 00:57:00;;;;;;;10.82;1.10;;;9.30;99.90;;;;;;5032847;28;20121;-53
2023/12/09 00:59:25;;;;;;;5.78;1.30;;;9.30;99.90;;;;;;5032715;28;20101;-50
2023/12/09 01:01:51;;;;;;;8.40;1.33;;;9.40;99.90;;;;;;5032533;28;20453;-52
2023/12/09 01:04:16;;;;;;;12.93;1.52;;;9.50;99.90;;;;;;5032536;28;20038;-54
2023/12/09 01:06:42;;;;;;;7.60;1.67;;;9.50;99.90;;;;;;5032634;28;20028;-50
2023/12/09 01:09:08;;;;;;;13.73;2.25;;;9.50;99.90;;;;;;5031926;28;20025;-51
2023/12/09 01:11:33;;;;;;;11.10;1.77;;;9.50;99.90;;;;;;5031432;28;20067;-54
2023/12/09 01:13:59;;;;;;;16.27;2.28;;;9.50;99.90;;;;;;5032385;28;20471;-55
2023/12/09 01:16:24;;;;;;;14.40;2.53;;;9.40;99.90;;;;;;5014722;28;20017;-55
2023/12/09 01:18:50;;;;;;;11.38;1.67;;;9.40;99.90;;;;;;5032286;28;20130;-53
2023/12/09 01:21:16;;;;;;;12.35;1.45;;;9.30;99.90;;;;;;5032303;28;20151;-51
2023/12/09 01:23:41;;;;;;;5.90;1.38;;;9.30;99.90;;;;;;5031985;28;20422;-54
2023/12/09 01:26:07;;;;;;;9.93;1.60;;;9.40;99.90;;;;;;5032248;28;20028;-51
2023/12/09 01:28:33;;;;;;;9.20;2.17;;;9.40;99.90;;;;;;5032370;28;20025;-54
2023/12/09 01:30:59;;;;;;;12.77;1.73;;;9.40;99.90;;;;;;5032043;28;20538;-55
2023/12/09 01:33:25;;;;;;;11.80;1.27;;;9.40;99.90;;;;;;5032194;28;20064;-54
2023/12/09 01:35:51;;;;;;;14.18;1.65;;;9.40;99.90;;;;;;5032127;28;20025;-52
2023/12/09 01:38:16;;;;;;;11.23;1.90;;;9.40;99.90;;;;;;5032005;28;20025;-51
2023/12/09 01:40:42;;;;;;;12.65;1.80;;;9.40;99.90;;;;;;5032058;28;20053;-49
2023/12/09 01:43:09;;;;;;;17.77;1.58;;;9.40;99.90;;;;;;5031848;28;20398;-53
2023/12/09 01:45:35;;;;;;;16.42;2.03;;;9.40;99.90;;;;;;5031881;28;20049;-51
2023/12/09 01:48:01;;;;;;;9.35;1.83;;;9.40;99.90;;;;;;5031679;28;20021;-51
2023/12/09 01:50:28;;;;;;;13.35;1.63;;;9.50;99.90;;;;;;5031820;28;20025;-54
2023/12/09 01:52:53;;;;;;;21.10;2.25;;;9.50;99.90;;;;;;5031380;28;20494;-52
2023/12/09 01:55:19;;;;;;;11.23;1.80;;;9.50;99.90;;;;;;5031607;28;20033;-53
2023/12/09 01:57:45;;;;;;;9.18;1.65;;;9.60;99.90;;;;;;5031378;28;20022;-50
2023/12/09 02:00:11;;;;;;;8.27;0.98;;;9.60;99.90;;;;;;5031359;28;20163;-54
2023/12/09 02:02:37;;;;;;;6.85;1.23;;;9.70;99.90;;;;;;5031315;28;20395;-50
2023/12/09 02:05:03;;;;;;;10.98;1.40;;;9.70;99.90;;;;;;5031284;28;20032;-53
2023/12/09 02:07:29;;;;;;;8.82;1.83;;;9.70;99.90;;;;;;5031144;28;20044;-49
2023/12/09 02:09:55;;;;;;;12.20;2.40;;;9.70;99.90;;;;;;5031307;28;20017;-52
2023/12/09 02:12:43;;;;;;;13.30;2.17;;;9.70;99.90;;;;;;5029877;28;20379;-51
2023/12/09 02:15:18;;;;;;;13.50;1.48;;;9.70;99.90;;;;;;5029030;28;20026;-53
2023/12/09 02:17:54;;;;;;;15.20;1.70;;;9.80;99.90;;;;;;5030567;28;20013;-49
2023/12/09 02:20:19;;;;;;;9.18;1.50;;;9.90;99.90;;;;;;5030730;28;20032;-52
2023/12/09 02:22:45;;;;;;;14.48;1.83;;;9.90;99.90;;;;;;5029830;28;20120;-56
2023/12/09 02:25:11;;;;;;;17.25;1.75;;;9.90;99.90;;;;;;5030784;28;20049;-52
2023/12/09 02:27:43;;;;;;;11.13;2.17;;;10.00;99.90;;;;;;5031012;28;20067;-51
2023/12/09 02:30:30;;;;;;;14.30;1.77;;;10.00;99.90;;;;;;5030689;28;20033;-52
2023/12/09 02:32:58;;;;;;;4.50;1.42;;;10.00;99.90;;;;;;5030785;28;20028;-52
2023/12/09 02:35:25;;;;;;;10.25;2.05;;;10.00;99.90;;;;;;5030669;28;20557;-48
2023/12/09 02:37:52;;;;;;;10.52;1.90;;;10.10;99.90;;;;;;5030679;28;20021;-55
2023/12/09 02:40:19;;;;;;;3.53;1.40;;;10.00;99.90;;;;;;5030711;28;20025;-50
2023/12/09 02:42:46;;;;;;;7.53;1.20;;;10.10;99.90;;;;;;5030456;28;20072;-54
2023/12/09 02:45:12;;;;;;;8.27;1.27;;;10.00;99.90;;;;;;5030609;28;20046;-49
2023/12/09 02:47:37;;;;;;;12.73;1.75;;;10.00;99.90;;;;;;5030382;28;20064;-51
2023/12/09 02:50:04;;;;;;;7.90;1.40;;;10.00;99.90;;;;;;5031019;28;20461;-55
2023/12/09 02:52:29;;;;;;;17.33;2.45;;;10.00;99.90;;;;;;5030388;28;20026;-52
2023/12/09 02:54:55;;;;;;;5.38;1.05;;;9.90;99.90;;;;;;5030662;28;20029;-56
2023/12/09 02:57:21;;;;;;;12.00;1.30;;;9.90;99.90;;;;;;5030263;28;20037;-57
2023/12/09 02:59:46;;;;;;;8.70;0.80;;;9.90;99.90;;;;;;5030579;28;20084;-52
2023/12/09 03:02:12;;;;;;;12.50;1.88;;;9.80;99.90;;;;;;5030375;28;20527;-52
2023/12/09 03:04:37;;;;;;;12.60;1.60;;;9.80;99.90;;;;;;5030141;28;20037;-55
2023/12/09 03:07:03;;;;;;;6.78;1.65;;;9.80;99.90;;;;;;5030073;28;20021;-55
2023/12/09 03:09:29;;;;;;;6.18;1.38;;;9.70;99.90;;;;;;5029981;28;20041;-54
2023/12/09 03:11:54;;;;;;;3.42;0.80;;;9.70;99.90;;;;;;5030181;28;20068;-51
2023/12/09 03:14:22;;;;;;;6.07;2.83;;;9.70;99.90;;;;;;5030024;28;20103;-56
2023/12/09 03:16:47;;;;;;;14.25;1.73;;;9.60;99.90;;;;;;5030199;28;20470;-60
2023/12/09 03:19:13;;;;;;;8.15;1.58;;;9.60;99.90;;;;;;5030126;28;20147;-54
2023/12/09 03:21:38;;;;;;;6.82;1.13;;;9.60;99.90;;;;;;5029844;28;20018;-49
2023/12/09 03:24:04;;;;;;;5.32;1.10;;;9.60;99.90;;;;;;5029974;28;20351;-51
2023/12/09 03:26:30;;;;;;;7.50;1.15;;;9.60;99.90;;;;;;5029738;28;20030;-49
2023/12/09 03:28:55;;;;;;;9.30;0.98;;;9.60;99.90;;;;;;5030177;28;20029;-50
2023/12/09 03:31:22;;;;;;;10.60;1.35;;;9.60;99.90;;;;;;5030281;28;20030;-48
2023/12/09 03:33:47;;;;;;;7.72;1.77;;;9.50;99.90;;;;;;5029791;28;20452;-49
2023/12/09 03:36:14;;;;;;;3.38;1.58;;;9.50;99.90;;;;;;5029974;28;20068;-52
2023/12/09 03:38:40;;;;;;;12.05;2.03;;;9.40;99.90;;;;;;5029636;28;20025;-55
2023/12/09 03:41:06;;;;;;;6.40;1.73;;;9.40;99.90;;;;;;5029885;28;20026;-56
2023/12/09 03:43:33;;;;;;;10.45;1.52;;;9.40;99.90;;;;;;5029596;28;20038;-56
2023/12/09 03:45:59;;;;;;;9.70;1.92;;;9.40;99.90;;;;;;5029720;28;20021;-54
2023/12/09 03:48:29;;;;;;;7.00;1.20;;;9.40;99.90;;;;;;5029762;28;20033;-55
2023/12/09 03:50:55;;;;;;;13.10;1.95;;;9.40;99.90;;;;;;5029705;28;20393;-51
2023/12/09 03:53:21;;;;;;;12.18;2.00;;;9.50;99.90;;;;;;5029661;28;20033;-56
2023/12/09 03:55:48;;;;;;;15.20;1.60;;;9.60;99.90;;;;;;5029525;28;20378;-53
2023/12/09 03:58:13;;;;;;;8.27;1.77;;;9.60;99.90;;;;;;5029748;28;20030;-50
2023/12/09 04:00:39;;;;;;;12.25;2.15;;;9.60;99.90;;;;;;5029491;28;20021;-57
2023/12/09 04:03:05;;;;;;;9.85;1.83;;;9.60;99.90;;;;;;5029679;28;20085;-56
2023/12/09 04:05:31;;;;;;;16.35;1.73;;;9.70;99.90;;;;;;5029526;28;20022;-54
2023/12/09 04:07:57;;;;;;;8.13;1.45;;;9.70;99.90;;;;;;5029435;28;20052;-49
2023/12/09 04:10:22;;;;;;;15.68;2.35;;;9.70;99.90;;;;;;5029500;28;20033;-48
2023/12/09 04:12:48;;;;;;;15.90;2.40;;;9.60;99.90;;;;;;5029616;28;20029;-53
2023/12/09 04:15:14;;;;;;;14.43;2.55;;;9.60;99.90;;;;;;5029555;28;20032;-55
2023/12/09 04:17:40;;;;;;;12.48;1.83;;;9.60;99.90;;;;;;5011660;28;20026;-56
2023/12/09 04:20:09;;;;;;;10.18;1.20;;;9.60;99.90;;;;;;5029658;28;20022;-55
2023/12/09 04:22:39;;;;;;;13.88;1.45;;;9.60;99.90;;;;;;5011234;28;20045;-51
2023/12/09 04:25:05;;;;;;;;;;;9.60;99.90;;;;;;5029767;28;20030;-53
2023/12/09 04:27:34;;;;;;;16.02;2.30;;;9.60;99.90;;;;;;5029546;28;19909;-52
2023/12/09 04:30:01;;;;;;;10.88;1.42;;;9.60;99.90;;;;;;5029509;28;20109;-56
2023/12/09 04:32:31;;;;;;;11.30;1.80;;;9.60;99.90;;;;;;5029450;28;20026;-54
2023/12/09 04:34:57;;;;;;;8.95;2.22;;;9.60;99.90;;;;;;5029145;28;20025;-55
2023/12/09 04:37:24;;;;;;;11.13;1.55;;;9.60;99.90;;;;;;5028999;28;20014;-54
2023/12/09 04:39:50;;;;;;;9.13;1.83;;;9.60;99.90;;;;;;5029325;28;20036;-57
2023/12/09 04:42:17;;;;;;;7.65;1.70;;;9.60;99.90;;;;;;5029212;28;20021;-51
2023/12/09 04:44:42;;;;;;;14.18;2.25;;;9.60;99.90;;;;;;5030020;28;20049;-49
2023/12/09 04:47:08;;;;;;;14.15;1.85;;;9.60;99.90;;;;;;5032801;28;20017;-50
2023/12/09 04:49:34;;;;;;;15.02;2.78;;;9.70;99.90;;;;;;5032830;28;20056;-48
2023/12/09 04:51:59;;;;;;;7.00;1.42;;;9.70;99.90;;;;;;5032587;28;20445;-49
2023/12/09 04:54:25;;;;;;;20.90;2.17;;;9.70;99.90;;;;;;5032397;28;20101;-53
2023/12/09 04:56:51;;;;;;;6.25;1.08;;;9.70;99.90;;;;;;5032664;28;20025;-52
2023/12/09 04:59:16;;;;;;;8.20;1.75;;;9.70;99.90;;;;;;5032604;28;20022;-54
2023/12/09 05:01:42;;;;;;;7.82;1.40;;;9.70;99.90;;;;;;5032656;28;20449;-48
2023/12/09 05:04:08;;;;;;;10.73;1.40;;;9.70;99.90;;;;;;5032374;28;20041;-52
2023/12/09 05:06:34;;;;;;;13.82;2.38;;;9.60;99.90;;;;;;5032593;28;20033;-52
2023/12/09 05:09:00;;;;;;;9.65;1.20;;;9.70;99.90;;;;;;5032169;28;20025;-50
2023/12/09 05:11:25;;;;;;;16.33;2.17;;;9.80;99.90;;;;;;5032575;28;20057;-50
2023/12/09 05:13:51;;;;;;;11.70;1.60;;;9.80;99.90;;;;;;5032612;28;20112;-49
2023/12/09 05:16:16;;;;;;;7.72;1.55;;;9.80;99.90;;;;;;5032271;28;20382;-51
2023/12/09 05:18:42;;;;;;;12.50;1.75;;;9.80;99.90;;;;;;5032308;28;20058;-51
2023/12/09 05:21:08;;;;;;;14.25;2.47;;;9.80;99.90;;;;;;5032174;28;20013;-48
2023/12/09 05:23:34;;;;;;;7.55;1.65;;;9.80;99.90;;;;;;5031877;28;20120;-51
2023/12/09 05:26:00;;;;;;;7.07;1.80;;;9.70;99.90;;;;;;5032488;28;20101;-51
2023/12/09 05:28:26;;;;;;;13.98;2.22;;;9.70;99.90;;;;;;5032033;28;20113;-51
2023/12/09 05:30:51;;;;;;;14.48;2.13;;;9.60;99.90;;;;;;5032096;28;20451;-52
2023/12/09 05:33:18;;;;;;;8.27;1.23;;;9.60;99.90;;;;;;5032007;28;20483;-57
2023/12/09 05:35:44;;;;;;;16.75;1.77;;;9.60;99.90;;;;;;5031737;28;20079;-56
2023/12/09 05:38:09;;;;;;;8.70;1.83;;;9.60;99.90;;;;;;5031777;28;20025;-54
2023/12/09 05:40:35;;;;;;;17.60;1.98;;;9.60;99.90;;;;;;5031824;28;20021;-49
2023/12/09 05:43:01;;;;;;;10.70;2.65;;;9.50;99.90;;;;;;5031830;28;20044;-53
2023/12/09 05:45:26;;;;;;;11.75;1.83;;;9.60;99.90;;;;;;5031728;28;20076;-50
2023/12/09 05:47:52;;;;;;;10.38;1.45;;;9.50;99.90;;;;;;5031869;28;20032;-48
2023/12/09 05:50:18;;;;;;;9.80;1.60;;;9.50;99.90;;;;;;5031737;28;20021;-50
2023/12/09 05:52:43;;;;;;;17.45;1.63;;;9.50;99.90;;;;;;5031635;28;20056;-54
2023/12/09 05:55:09;;;;;;;8.73;1.88;;;9.50;99.90;;;;;;5031556;28;20104;-50
2023/12/09 05:57:34;;;;;;;12.48;1.70;;;9.50;99.90;;;;;;5031790;28;20056;-51
2023/12/09 06:00:00;;;;;;;10.05;1.55;;;9.50;99.90;;;;;;5031707;28;20040;-48
2023/12/09 06:02:26;;;;;;;20.45;2.33;;;9.50;99.90;;;;;;5031440;28;20033;-51
2023/12/09 06:04:52;;;;;;;6.97;1.58;;;9.50;99.90;;;;;;5031592;28;20033;-50
2023/12/09 06:07:17;;;;;;;7.90;1.55;;;9.40;99.90;;;;;;5031200;28;20017;-50
2023/12/09 06:09:43;;;;;;;10.07;1.83;;;9.40;99.90;;;;;;5031454;28;20033;-51
2023/12/09 06:12:09;;;;;;;13.65;1.42;;;9.50;99.90;;;;;;5031562;28;20017;-52
2023/12/09 06:14:35;;;;;;;14.35;2.45;;;9.40;99.90;;;;;;5031255;28;20091;-51
2023/12/09 06:17:00;;;;;;;2.90;1.10;;;9.50;99.90;;;;;;5031350;28;20018;-53
2023/12/09 06:19:26;;;;;;;9.73;1.80;;;9.50;99.90;;;;;;5031193;28;20026;-52
2023/12/09 06:21:52;;;;;;;8.90;1.88;;;9.50;99.90;;;;;;5031141;28;20021;-52
2023/12/09 06:24:17;;;;;;;7.38;2.13;;;9.50;99.90;;;;;;5030949;28;20128;-52
2023/12/09 06:26:44;;;;;;;2.70;1.27;;;9.50;99.90;;;;;;5031053;28;20018;-52
2023/12/09 06:29:13;;;;;;;9.65;1.80;;;9.50;99.90;;;;;;5031141;28;20029;-53
2023/12/09 06:31:39;;;;;;;;;;;9.50;99.90;;;;;;5031422;28;20060;-52
2023/12/09 06:34:05;;;;;;;10.18;2.53;;;9.50;99.90;;;;;;5031000;28;19948;-48
2023/12/09 06:36:31;;;;;;;11.25;1.83;;;9.50;99.90;;;;;;5030961;28;20486;-53
2023/12/09 06:38:56;;;;;;;5.88;1.60;;;9.50;99.90;;;;;;5030740;28;20048;-51
2023/12/09 06:41:22;;;;;;;9.73;1.60;;;9.50;99.90;;;;;;5030808;28;20022;-49
2023/12/09 06:43:48;;;;;;;7.00;1.50;;;9.50;99.90;;;;;;5030580;28;20049;-54
2023/12/09 06:46:13;;;;;;;7.80;1.65;;;9.50;99.90;;;;;;5023907;28;20022;-52
2023/12/09 06:48:39;;;;;;;6.25;1.10;;;9.50;99.90;;;;;;5026875;28;20446;-52
2023/12/09 06:51:07;;;;;;;11.10;1.92;;;9.50;99.90;;;;;;5030901;28;20069;-52
2023/12/09 06:53:37;;;;;;;7.88;1.63;;;9.50;99.90;;;;;;5030544;28;20034;-52
2023/12/09 06:56:03;;;;;;;6.35;1.50;;;9.50;99.90;;;;;;5030474;28;20013;-53
2023/12/09 06:58:29;;;;;;;9.98;1.67;;;9.50;99.90;;;;;;5030658;28;20030;-52
2023/12/09 07:00:55;;;;;;;7.07;1.60;;;9.50;99.90;;;;;;5030048;28;20018;-52
2023/12/09 07:03:20;;;;;;;5.72;1.30;;;9.50;99.90;;;;;;5030418;28;20430;-51
2023/12/09 07:05:46;;;;;;;9.35;1.23;;;9.50;99.90;;;;;;5029832;28;20044;-53
2023/12/09 07:08:12;;;;;;;6.53;1.10;;;9.50;99.90;;;;;;5029650;28;20202;-54
2023/12/09 07:10:37;;;;;;;10.15;1.42;;;9.50;99.90;;;;;;5029740;28;20373;-50
2023/12/09 07:13:04;;;;;;;6.72;1.25;;;9.50;99.90;;;;;;5012445;28;20029;-49
2023/12/09 07:15:30;;;;;;;6.63;1.75;;;9.60;99.90;;;;;;5030234;28;20075;-54
2023/12/09 07:17:55;;;;;;;3.10;0.70;;;9.50;99.90;;;;;;5030181;28;20025;-53
2023/12/09 07:20:21;;;;;;;6.65;1.10;;;9.50;99.90;;;;;;5030256;28;20037;-52
2023/12/09 07:22:47;;;;;;;5.35;1.38;;;9.60;99.90;;;;;;5029935;28;20079;-51
2023/12/09 07:25:12;;;;;;;6.18;1.55;;;9.60;99.90;;;;;;5030178;28;20025;-51
2023/12/09 07:27:38;;;;;;;4.90;1.10;;;9.60;99.90;;;;;;5029924;28;20034;-55
2023/12/09 07:30:05;;;;;;;9.13;1.20;;;9.60;99.90;;;;;;5029489;28;20021;-52
2023/12/09 07:32:31;;;;;;;4.95;1.00;;;9.60;99.90;;;;;;5030082;28;20022;-53
2023/12/09 07:34:56;;;;;;;5.18;0.90;;;9.60;99.90;;;;;;5029873;28;20030;-48
2023/12/09 07:37:22;;;;;;;5.93;1.17;;;9.60;99.90;;;;;;5029849;28;20029;-49
2023/12/09 07:39:47;;;;;;;6.43;1.38;;;9.60;99.90;;;;;;5029911;28;20029;-50
2023/12/09 07:42:13;;;;;;;4.75;1.02;;;9.60;99.90;;;;;;5029662;28;20018;-53
2023/12/09 07:44:39;;;;;;;4.32;1.20;;;9.60;99.90;;;;;;5029500;28;20506;-52
2023/12/09 07:47:04;;;;;;;5.38;1.55;;;9.60;99.90;;;;;;5029744;28;20350;-51
2023/12/09 07:49:30;;;;;;;5.68;1.20;;;9.60;99.90;;;;;;5029832;28;20515;-51
2023/12/09 07:51:56;;;;;;;7.10;1.20;;;9.60;99.90;;;;;;5029692;28;20054;-49
2023/12/09 07:54:21;;;;;;;2.22;0.70;;;9.60;99.90;;;;;;5029455;28;20475;-48
2023/12/09 07:56:47;;;;;;;9.55;1.23;;;9.60;99.90;;;;;;5029876;28;20032;-50
2023/12/09 07:59:12;;;;;;;5.60;1.30;;;9.70;99.90;;;;;;5029789;28;20024;-50
2023/12/09 08:01:40;;;;;;;4.72;1.10;;;9.70;99.90;;;;;;5029662;28;20098;-49
2023/12/09 08:04:05;;;;;;;3.33;1.02;;;9.70;99.90;;;;;;5029484;28;20124;-50
2023/12/09 08:06:32;;;;;;;1.92;1.23;;;9.70;99.90;;;;;;5029875;28;20026;-52
2023/12/09 08:08:57;;;;;;;2.90;0.70;;;9.70;99.90;;;;;;5029127;28;20050;-52
2023/12/09 08:11:23;;;;;;;3.92;0.88;;;9.70;99.90;;;;;;5029723;28;20052;-53
2023/12/09 08:13:49;;;;;;;11.30;1.02;;;9.70;99.90;;;;;;5029334;28;20513;-50
2023/12/09 08:16:14;;;;;;;7.00;0.82;;;9.80;99.90;;;;;;5029462;28;20017;-53
2023/12/09 08:18:42;;;;;;;4.93;0.50;;;9.70;99.90;;;;;;5012577;28;20041;-52
2023/12/09 08:21:07;;;;;;;6.47;0.93;;;9.70;99.90;;;;;;5033513;28;20026;-55
2023/12/09 08:23:33;;;;;;;3.90;0.70;;;9.70;99.90;;;;;;5033392;28;20506;-52
2023/12/09 08:25:59;;;;;;;4.60;0.60;;;9.70;99.90;;;;;;5033264;28;20053;-54
2023/12/09 08:28:27;;;;;;;1.48;0.70;;;9.70;99.90;;;;;;5033259;28;20029;-50
2023/12/09 08:30:53;;;;;;;4.60;0.50;;;9.70;99.90;;;;;;5033420;28;20033;-53
2023/12/09 08:33:18;;;;;;;1.75;0.52;;;9.70;99.90;;;;;;5033229;28;20033;-52
2023/12/09 08:35:44;;;;;;;5.30;0.65;;;9.70;99.90;;;;;;5033385;28;20021;-53
2023/12/09 08:38:10;;;;;;;3.33;0.70;;;9.70;99.90;;;;;;5032519;28;20017;-53
2023/12/09 08:40:35;;;;;;;6.45;0.73;;;9.70;99.90;;;;;;5017516;28;20021;-53
2023/12/09 08:43:01;;;;;;;5.13;0.75;;;9.70;99.90;;;;;;5029915;28;20025;-52
2023/12/09 08:45:31;;;;;;;4.45;0.70;;;9.70;99.90;;;;;;5030804;28;20049;-54
2023/12/09 08:47:56;;;;;;;;;;;9.70;99.90;;;;;;5031631;28;20041;-51
2023/12/09 08:50:22;;;;;;;4.13;0.75;;;9.70;99.90;;;;;;5031121;28;19913;-54
2023/12/09 08:52:48;;;;;;;2.40;0.60;;;9.70;99.90;;;;;;5031199;28;20116;-53
2023/12/09 08:55:13;;;;;;;2.78;0.60;;;9.70;99.90;;;;;;5032888;28;20026;-56
2023/12/09 08:57:39;;;;;;;1.35;0.60;;;9.70;99.90;;;;;;5032774;28;20021;-55
2023/12/09 09:00:08;;;;;;;3.78;0.52;;;9.70;99.90;;;;;;5032958;28;20025;-56
2023/12/09 09:02:33;;;;;;;1.13;0.57;;;9.70;99.90;;;;;;5032566;28;20041;-56
2023/12/09 09:04:59;;;;;;;4.80;0.70;;;9.80;99.90;;;;;;5032778;28;20033;-57
2023/12/09 09:07:25;;;;;;;1.60;0.52;;;9.80;99.90;;;;;;5032549;28;20232;-57
2023/12/09 09:09:50;;;;;;;1.38;0.52;;;9.80;99.90;;;;;;5032622;28;20025;-56
2023/12/09 09:12:16;;;;;;;6.47;0.70;;;9.90;99.90;;;;;;5032108;28;20426;-56
2023/12/09 09:14:42;;;;;;;5.30;0.70;;;9.90;99.90;;;;;;5032520;28;20036;-56
2023/12/09 09:20:00;;;;;;;5.32;0.90;;;9.90;99.90;;;;;;4455682;23;20047;-57
2023/12/09 09:22:26;;;;;;;5.10;0.77;;;9.90;99.90;;;;;;4972899;28;20035;-58
2023/12/09 09:24:51;;;;;;;3.83;0.57;;;9.90;99.90;;;;;;4973349;28;20045;-57
2023/12/09 09:27:17;;;;;;;2.53;0.52;;;9.90;99.90;;;;;;4971101;28;20371;-58
2023/12/09 09:29:42;;;;;;;7.50;0.93;;;10.00;99.90;;;;;;4971970;28;20376;-58
2023/12/09 09:32:08;;;;;;;1.60;0.50;;;10.00;99.90;;;;;;4955274;28;20534;-58
2023/12/09 09:34:34;;;;;;;2.35;0.50;;;10.00;99.90;;;;;;4957941;28;20035;-57
2023/12/09 09:36:59;;;;;;;6.78;0.70;;;10.00;99.90;;;;;;4961346;28;20039;-58
2023/12/09 09:39:25;;;;;;;4.43;1.00;;;10.10;99.90;;;;;;4970104;28;20411;-59
2023/12/09 09:42:09;;;;;;;3.67;1.20;;;10.20;99.90;;;;;;4966795;28;20027;-59
2023/12/09 09:44:42;;;;;;;1.48;0.80;;;10.20;99.90;;;;;;4971476;28;20095;-60
2023/12/09 09:47:10;;;;;;;5.65;2.90;;;10.20;99.90;;;;;;4972059;28;20110;-58
2023/12/09 09:49:37;;;;;;;5.18;2.47;;;10.30;99.90;;;;;;4973261;28;20027;-59
2023/12/09 09:52:04;;;;;;;5.75;1.23;;;10.30;99.90;;;;;;4960728;28;20031;-59
2023/12/09 09:54:31;;;;;;;2.15;0.40;;;10.50;99.90;;;;;;4970960;28;20027;-59
2023/12/09 09:56:58;;;;;;;4.32;1.60;;;10.50;99.90;;;;;;4971319;28;20395;-59
2023/12/09 09:59:25;;;;;;;1.92;0.60;;;10.60;99.90;;;;;;4961915;28;20038;-60
2023/12/09 10:01:50;;;;;;;2.10;0.50;;;10.70;99.90;;;;;;4968927;28;20041;-59
2023/12/09 10:04:16;;;;;;;0.47;0.40;;;10.70;99.90;;;;;;4963756;28;20391;-59
2023/12/09 10:06:43;;;;;;;1.05;0.85;;;10.80;99.90;;;;;;4967953;28;20098;-59
2023/12/09 10:09:09;;;;;;;5.03;0.73;;;10.80;99.90;;;;;;4965610;28;20034;-59
2023/12/09 10:11:35;;;;;;;4.18;1.10;;;10.90;99.90;;;;;;4967495;28;20027;-59
2023/12/09 10:14:00;;;;;;;6.28;3.05;;;11.00;99.90;;;;;;4967552;28;20023;-60
2023/12/09 10:16:26;;;;;;;27.08;6.93;;;11.10;99.90;;;;;;4965329;28;20031;-59
2023/12/09 10:18:52;;;;;;;3.42;0.60;;;11.20;99.90;;;;;;4968282;28;20054;-59
2023/12/09 10:21:17;;;;;;;5.50;1.88;;;11.20;99.90;;;;;;4963903;28;20074;-58
2023/12/09 10:23:45;;;;;;;3.13;0.80;;;11.40;99.90;;;;;;4966501;28;20070;-53
2023/12/09 10:26:12;;;;;;;1.88;0.40;;;11.50;99.90;;;;;;4967499;28;20034;-58
2023/12/09 10:28:37;;;;;;;5.47;1.05;;;11.60;99.90;;;;;;4969035;28;20038;-59
2023/12/09 10:31:03;;;;;;;2.53;0.55;;;11.60;99.90;;;;;;4959919;28;20082;-59
2023/12/09 10:33:39;;;;;;;2.63;0.75;;;11.70;99.90;;;;;;4971552;28;20049;-59
2023/12/09 10:36:06;;;;;;;12.82;1.40;;;11.80;99.90;;;;;;4958998;28;20034;-58
2023/12/09 10:38:32;;;;;;;6.13;1.23;;;11.90;99.90;;;;;;4965223;28;20036;-59
2023/12/09 10:40:58;;;;;;;5.05;1.20;;;12.00;99.90;;;;;;4967770;28;20122;-59
2023/12/09 10:43:24;;;;;;;6.97;2.38;;;12.10;99.90;;;;;;4965159;28;20038;-60
2023/12/09 10:45:49;;;;;;;5.13;1.13;;;12.10;99.90;;;;;;4970444;28;20105;-59
2023/12/09 10:48:15;;;;;;;11.85;1.40;;;12.20;99.90;;;;;;4967816;28;20547;-58
2023/12/09 10:50:44;;;;;;;10.65;1.33;;;12.20;99.90;;;;;;4962703;28;20102;-59
2023/12/09 10:53:10;;;;;;;;;;;12.30;99.90;;;;;;4966368;28;20127;-59
2023/12/09 10:55:36;;;;;;;4.47;1.10;;;12.40;99.90;;;;;;4961271;28;19962;-59
2023/12/09 10:58:04;;;;;;;7.80;1.35;;;12.40;99.90;;;;;;4966329;28;20133;-59
2023/12/09 11:00:32;;;;;;;7.88;0.85;;;12.50;99.90;;;;;;4962230;28;20035;-60
2023/12/09 11:02:58;;;;;;;6.20;1.35;;;12.60;99.90;;;;;;4967918;28;20077;-59
2023/12/09 11:05:25;;;;;;;9.05;1.40;;;12.60;99.90;;;;;;4964474;28;20487;-58
2023/12/09 11:07:53;;;;;;;5.00;1.13;;;12.70;99.90;;;;;;4952163;28;20027;-59
2023/12/09 11:10:20;;;;;;;4.97;0.80;;;12.70;99.90;;;;;;4953767;28;20035;-59
2023/12/09 11:12:47;;;;;;;5.38;1.10;;;12.70;99.90;;;;;;4953269;28;20491;-59
2023/12/09 11:15:13;;;;;;;9.43;1.50;;;12.70;99.90;;;;;;4954000;28;20031;-59
2023/12/09 11:17:49;;;;;;;12.52;1.45;;;12.70;99.90;;;;;;4953393;28;20031;-58
2023/12/09 11:20:18;;;;;;;13.15;1.63;;;12.70;99.90;;;;;;4953449;28;20073;-60
2023/12/09 11:22:45;;;;;;;12.27;2.10;;;12.80;99.90;;;;;;4953245;28;20068;-60
2023/12/09 11:25:25;;;;;;;21.05;2.33;;;12.80;99.90;;;;;;4953287;28;20265;-59
2023/12/09 11:27:55;;;;;;;5.82;1.10;;;12.80;99.90;;;;;;4955038;28;20015;-59
2023/12/09 11:30:40;;;;;;;5.47;1.17;;;12.80;99.90;;;;;;4971406;28;20090;-59
2023/12/09 11:33:07;;;;;;;6.50;1.73;;;12.90;99.90;;;;;;4958074;28;20042;-60
2023/12/09 11:35:34;;;;;;;8.80;1.30;;;12.90;99.90;;;;;;4961714;28;20487;-60
2023/12/09 11:38:04;;;;;;;10.32;1.65;;;12.90;99.90;;;;;;4964413;28;20049;-60
2023/12/09 11:40:31;;;;;;;11.43;1.50;;;12.90;99.90;;;;;;4964718;28;20038;-59
2023/12/09 11:43:00;;;;;;;19.60;2.10;;;12.90;99.90;;;;;;4967940;28;20054;-59
2023/12/09 11:45:29;;;;;;;9.00;1.75;;;12.90;99.90;;;;;;4962683;28;20051;-59
2023/12/09 11:47:55;;;;;;;10.77;1.58;;;12.90;99.90;;;;;;4962562;28;20511;-59
2023/12/09 11:50:21;;;;;;;16.40;1.65;;;12.90;99.90;;;;;;4962470;28;20038;-60
2023/12/09 11:52:47;;;;;;;7.90;1.15;;;13.00;99.90;;;;;;4966833;28;20407;-59
2023/12/09 11:55:16;;;;;;;11.50;1.50;;;12.90;99.90;;;;;;4967118;28;20020;-60
2023/12/09 11:57:43;;;;;;;8.90;1.45;;;13.00;99.90;;;;;;4969841;28;20029;-59
2023/12/09 12:00:13;;;;;;;6.30;1.90;;;13.00;99.90;;;;;;4963542;28;20118;-59
2023/12/09 12:02:39;;;;;;;10.75;1.50;;;12.90;99.90;;;;;;4963894;28;20027;-60
2023/12/09 12:05:09;;;;;;;9.93;1.42;;;12.90;99.90;;;;;;4970463;28;20033;-60
2023/12/09 12:07:36;;;;;;;10.23;1.73;;;13.00;99.90;;;;;;4968328;28;20034;-61
2023/12/09 12:10:03;;;;;;;6.70;2.08;;;13.00;99.90;;;;;;4970743;28;20472;-59
2023/12/09 12:12:30;;;;;;;6.68;1.63;;;13.00;99.90;;;;;;4961266;28;20023;-59
2023/12/09 12:14:56;;;;;;;12.15;1.80;;;13.00;99.90;;;;;;4963442;28;20033;-58
2023/12/09 12:17:22;;;;;;;11.20;1.50;;;13.00;99.90;;;;;;4964527;28;20019;-59
2023/12/09 12:19:48;;;;;;;6.55;1.30;;;13.00;99.90;;;;;;4964358;28;20389;-59
2023/12/09 12:22:14;;;;;;;13.45;1.60;;;13.10;99.90;;;;;;4966110;28;20022;-58
2023/12/09 12:24:43;;;;;;;9.20;1.98;;;13.00;99.90;;;;;;4962693;28;20074;-59
2023/12/09 12:27:09;;;;;;;11.02;1.92;;;13.10;99.90;;;;;;4967711;28;20023;-59
2023/12/09 12:29:39;;;;;;;9.18;1.77;;;13.10;99.90;;;;;;4973754;28;20029;-59
2023/12/09 12:32:08;;;;;;;11.73;1.50;;;13.20;99.90;;;;;;4969317;28;20034;-60
2023/12/09 12:34:33;;;;;;;10.68;1.77;;;13.40;99.90;;;;;;4969617;28;20348;-59
2023/12/09 12:36:59;;;;;;;7.82;1.88;;;13.50;99.90;;;;;;4964637;28;20023;-59
2023/12/09 12:39:25;;;;;;;7.43;1.17;;;13.80;99.90;;;;;;4968277;28;20085;-60
2023/12/09 12:41:51;;;;;;;8.93;1.45;;;14.00;99.90;;;;;;4964289;28;20019;-59
2023/12/09 12:44:17;;;;;;;7.85;1.55;;;14.10;99.90;;;;;;4970523;28;20031;-59
2023/12/09 12:46:43;;;;;;;4.38;1.20;;;14.10;99.90;;;;;;4968421;28;20016;-60
2023/12/09 12:49:08;;;;;;;3.60;1.45;;;14.00;99.90;;;;;;4972598;28;20029;-58